createdAt,value
2018-04-02T00:00:08.482Z,0
2018-04-02T00:01:08.194Z,0
2018-04-02T00:02:07.646Z,0
2018-04-02T00:03:07.934Z,0
2018-04-02T00:04:07.941Z,0
2018-04-02T00:05:08.241Z,0
2018-04-02T00:06:07.990Z,0
2018-04-02T00:07:08.264Z,0
2018-04-02T00:08:08.274Z,0
2018-04-02T00:09:08.001Z,0
2018-04-02T00:10:08.298Z,0
2018-04-02T00:11:07.731Z,0
2018-04-02T00:12:08.344Z,0
2018-04-02T00:13:08.379Z,0
2018-04-02T00:14:08.403Z,0
2018-04-02T00:15:08.749Z,0
2018-04-02T00:16:08.084Z,0
2018-04-02T00:17:08.408Z,0
2018-04-02T00:18:08.096Z,0
2018-04-02T00:19:08.387Z,0
2018-04-02T00:20:08.421Z,0
2018-04-02T00:21:08.695Z,0
2018-04-02T00:22:08.440Z,0
2018-04-02T00:23:08.730Z,0
2018-04-02T00:24:08.493Z,0
2018-04-02T00:25:08.174Z,0
2018-04-02T00:26:08.471Z,0
2018-04-02T00:27:08.194Z,0
2018-04-02T00:28:08.222Z,0
2018-04-02T00:29:08.498Z,0
2018-04-02T00:30:08.227Z,0
2018-04-02T00:31:08.519Z,0
2018-04-02T00:32:07.702Z,0
2018-04-02T00:33:08.548Z,0
2018-04-02T00:34:08.550Z,0
2018-04-02T00:35:08.291Z,0
2018-04-02T00:36:08.606Z,0
2018-04-02T00:37:08.640Z,0
2018-04-02T00:38:08.615Z,0
2018-04-02T00:39:08.327Z,0
2018-04-02T00:40:08.626Z,0
2018-04-02T00:41:08.360Z,0
2018-04-02T00:42:08.076Z,0
2018-04-02T00:43:08.665Z,0
2018-04-02T00:44:08.118Z,0
2018-04-02T00:45:08.677Z,0
2018-04-02T00:46:08.973Z,0
2018-04-02T00:47:08.995Z,0
2018-04-02T00:48:08.485Z,0
2018-04-02T00:49:08.732Z,0
2018-04-02T00:50:08.461Z,0
2018-04-02T00:51:08.467Z,0
2018-04-02T00:52:08.756Z,0
2018-04-02T00:53:08.788Z,0
2018-04-02T00:54:07.931Z,0
2018-04-02T00:55:08.219Z,0
2018-04-02T00:56:08.814Z,0
2018-04-02T00:57:08.812Z,0
2018-04-02T00:58:08.286Z,0
2018-04-02T00:59:08.553Z,0
2018-04-02T01:00:09.140Z,0
2018-04-02T01:01:08.294Z,0
2018-04-02T01:02:08.300Z,0
2018-04-02T01:03:09.176Z,0
2018-04-02T01:04:08.323Z,0
2018-04-02T01:05:08.617Z,0
2018-04-02T01:06:08.913Z,0
2018-04-02T01:07:08.924Z,0
2018-04-02T01:08:08.600Z,0
2018-04-02T01:09:08.667Z,0
2018-04-02T01:10:08.670Z,0
2018-04-02T01:11:08.961Z,0
2018-04-02T01:12:08.986Z,0
2018-04-02T01:13:08.136Z,0
2018-04-02T01:14:08.430Z,0
2018-04-02T01:15:09.848Z,0
2018-04-02T01:16:09.318Z,0
2018-04-02T01:17:09.239Z,0
2018-04-02T01:18:09.088Z,0
2018-04-02T01:19:09.646Z,0
2018-04-02T01:20:09.026Z,0
2018-04-02T01:21:09.754Z,0
2018-04-02T01:22:10.033Z,0
2018-04-02T01:23:09.038Z,0
2018-04-02T01:24:09.660Z,0
2018-04-02T01:25:09.673Z,0
2018-04-02T01:26:09.764Z,0
2018-04-02T01:27:09.362Z,0
2018-04-02T01:28:09.911Z,0
2018-04-02T01:29:09.527Z,0
2018-04-02T01:30:09.924Z,0
2018-04-02T01:31:09.581Z,0
2018-04-02T01:32:09.431Z,0
2018-04-02T01:33:09.045Z,0
2018-04-02T01:34:09.546Z,0
2018-04-02T01:35:09.687Z,0
2018-04-02T01:36:10.295Z,0
2018-04-02T01:37:09.584Z,0
2018-04-02T01:38:09.972Z,0
2018-04-02T01:39:09.775Z,0
2018-04-02T01:40:09.970Z,0
2018-04-02T01:41:09.663Z,0
2018-04-02T01:42:09.884Z,0
2018-04-02T01:43:09.038Z,0
2018-04-02T01:44:09.046Z,0
2018-04-02T01:45:08.775Z,0
2018-04-02T01:46:08.785Z,0
2018-04-02T01:47:08.800Z,0
2018-04-02T01:48:09.389Z,0
2018-04-02T01:49:09.391Z,0
2018-04-02T01:50:09.286Z,0
2018-04-02T01:51:09.431Z,0
2018-04-02T01:52:08.861Z,0
2018-04-02T01:53:08.865Z,0
2018-04-02T01:54:08.878Z,0
2018-04-02T01:55:09.752Z,0
2018-04-02T01:56:09.770Z,0
2018-04-02T01:57:09.515Z,0
2018-04-02T01:58:09.489Z,0
2018-04-02T01:59:08.936Z,0
2018-04-02T02:00:09.226Z,0
2018-04-02T02:01:09.240Z,0
2018-04-02T02:02:09.314Z,0
2018-04-02T02:03:09.545Z,0
2018-04-02T02:04:09.569Z,0
2018-04-02T02:05:08.994Z,0
2018-04-02T02:06:09.577Z,0
2018-04-02T02:07:09.300Z,0
2018-04-02T02:08:09.604Z,0
2018-04-02T02:09:09.322Z,0
2018-04-02T02:10:09.330Z,0
2018-04-02T02:11:09.628Z,0
2018-04-02T02:12:09.355Z,0
2018-04-02T02:13:09.084Z,0
2018-04-02T02:14:09.665Z,0
2018-04-02T02:15:09.872Z,0
2018-04-02T02:16:09.966Z,0
2018-04-02T02:17:09.703Z,0
2018-04-02T02:18:09.732Z,0
2018-04-02T02:19:09.443Z,0
2018-04-02T02:20:09.730Z,0
2018-04-02T02:21:09.743Z,0
2018-04-02T02:22:09.483Z,0
2018-04-02T02:23:09.196Z,0
2018-04-02T02:24:09.776Z,0
2018-04-02T02:25:09.505Z,0
2018-04-02T02:26:09.816Z,0
2018-04-02T02:27:09.815Z,0
2018-04-02T02:28:09.547Z,0
2018-04-02T02:29:10.111Z,0
2018-04-02T02:30:09.551Z,0
2018-04-02T02:31:10.134Z,0
2018-04-02T02:32:09.874Z,0
2018-04-02T02:33:09.880Z,0
2018-04-02T02:34:09.635Z,0
2018-04-02T02:35:10.695Z,0
2018-04-02T02:36:09.938Z,0
2018-04-02T02:37:09.920Z,0
2018-04-02T02:38:09.923Z,0
2018-04-02T02:39:09.928Z,0
2018-04-02T02:40:09.381Z,0
2018-04-02T02:41:09.968Z,0
2018-04-02T02:42:09.977Z,0
2018-04-02T02:43:09.983Z,0
2018-04-02T02:44:10.032Z,0
2018-04-02T02:45:09.718Z,0
2018-04-02T02:46:09.466Z,0
2018-04-02T02:47:09.463Z,0
2018-04-02T02:48:10.060Z,0
2018-04-02T02:49:10.050Z,0
2018-04-02T02:50:09.789Z,0
2018-04-02T02:51:10.079Z,0
2018-04-02T02:52:10.094Z,0
2018-04-02T02:53:10.101Z,0
2018-04-02T02:54:10.389Z,0
2018-04-02T02:55:09.556Z,0
2018-04-02T02:56:09.857Z,0
2018-04-02T02:57:10.434Z,0
2018-04-02T02:58:10.151Z,0
2018-04-02T02:59:09.898Z,0
2018-04-02T03:00:10.190Z,0
2018-04-02T03:01:10.480Z,0
2018-04-02T03:02:09.945Z,0
2018-04-02T03:03:10.210Z,0
2018-04-02T03:04:09.731Z,0
2018-04-02T03:05:09.951Z,0
2018-04-02T03:06:10.544Z,0
2018-04-02T03:07:09.687Z,0
2018-04-02T03:08:09.973Z,0
2018-04-02T03:09:10.270Z,0
2018-04-02T03:10:10.010Z,0
2018-04-02T03:11:10.001Z,0
2018-04-02T03:12:09.747Z,0
2018-04-02T03:13:10.026Z,0
2018-04-02T03:14:09.764Z,0
2018-04-02T03:15:10.341Z,0
2018-04-02T03:16:10.333Z,0
2018-04-02T03:17:09.781Z,0
2018-04-02T03:18:10.090Z,0
2018-04-02T03:19:10.373Z,0
2018-04-02T03:20:10.403Z,0
2018-04-02T03:21:10.112Z,0
2018-04-02T03:22:10.410Z,0
2018-04-02T03:23:10.485Z,0
2018-04-02T03:24:10.142Z,0
2018-04-02T03:25:10.160Z,0
2018-04-02T03:26:09.886Z,0
2018-04-02T03:27:10.746Z,0
2018-04-02T03:28:10.218Z,0
2018-04-02T03:29:10.757Z,0
2018-04-02T03:30:10.565Z,0
2018-04-02T03:31:10.508Z,0
2018-04-02T03:32:10.527Z,0
2018-04-02T03:33:10.241Z,0
2018-04-02T03:34:09.991Z,0
2018-04-02T03:35:10.544Z,0
2018-04-02T03:36:10.300Z,0
2018-04-02T03:37:09.725Z,0
2018-04-02T03:38:10.294Z,0
2018-04-02T03:39:10.301Z,0
2018-04-02T03:40:10.606Z,0
2018-04-02T03:41:10.610Z,0
2018-04-02T03:42:10.352Z,0
2018-04-02T03:43:10.068Z,0
2018-04-02T03:44:10.928Z,0
2018-04-02T03:45:10.656Z,0
2018-04-02T03:46:10.096Z,0
2018-04-02T03:47:10.117Z,0
2018-04-02T03:48:10.978Z,0
2018-04-02T03:49:10.985Z,0
2018-04-02T03:50:10.433Z,0
2018-04-02T03:51:10.439Z,0
2018-04-02T03:52:10.740Z,0
2018-04-02T03:53:10.738Z,0
2018-04-02T03:54:10.468Z,0
2018-04-02T03:55:10.196Z,0
2018-04-02T03:56:10.481Z,0
2018-04-02T03:57:10.505Z,0
2018-04-02T03:58:10.812Z,0
2018-04-02T03:59:10.517Z,0
2018-04-02T04:00:11.101Z,0
2018-04-02T04:01:09.976Z,0
2018-04-02T04:02:11.184Z,0
2018-04-02T04:03:10.854Z,0
2018-04-02T04:04:10.592Z,0
2018-04-02T04:05:11.152Z,0
2018-04-02T04:06:10.883Z,0
2018-04-02T04:07:10.897Z,0
2018-04-02T04:08:10.620Z,0
2018-04-02T04:09:10.912Z,0
2018-04-02T04:10:10.636Z,0
2018-04-02T04:11:10.366Z,0
2018-04-02T04:12:11.233Z,0
2018-04-02T04:13:10.385Z,0
2018-04-02T04:14:10.677Z,0
2018-04-02T04:15:11.091Z,0
2018-04-02T04:16:10.988Z,0
2018-04-02T04:17:10.996Z,0
2018-04-02T04:18:10.440Z,0
2018-04-02T04:19:10.505Z,0
2018-04-02T04:20:10.758Z,0
2018-04-02T04:21:11.035Z,0
2018-04-02T04:22:10.765Z,0
2018-04-02T04:23:10.787Z,0
2018-04-02T04:24:10.503Z,0
2018-04-02T04:25:11.085Z,0
2018-04-02T04:26:10.814Z,0
2018-04-02T04:27:10.828Z,0
2018-04-02T04:28:11.395Z,0
2018-04-02T04:29:11.135Z,0
2018-04-02T04:30:10.852Z,0
2018-04-02T04:31:10.576Z,0
2018-04-02T04:32:11.154Z,0
2018-04-02T04:33:10.881Z,0
2018-04-02T04:34:11.462Z,0
2018-04-02T04:35:10.901Z,0
2018-04-02T04:36:11.214Z,0
2018-04-02T04:37:10.921Z,0
2018-04-02T04:38:11.222Z,0
2018-04-02T04:39:11.232Z,0
2018-04-02T04:40:10.677Z,0
2018-04-02T04:41:11.255Z,0
2018-04-02T04:42:10.978Z,0
2018-04-02T04:43:10.993Z,0
2018-04-02T04:44:11.008Z,0
2018-04-02T04:45:10.732Z,0
2018-04-02T04:46:11.023Z,0
2018-04-02T04:47:11.316Z,0
2018-04-02T04:48:10.759Z,0
2018-04-02T04:49:11.056Z,0
2018-04-02T04:50:11.352Z,0
2018-04-02T04:51:11.644Z,0
2018-04-02T04:52:11.092Z,0
2018-04-02T04:53:11.095Z,0
2018-04-02T04:54:11.393Z,0
2018-04-02T04:55:11.406Z,0
2018-04-02T04:56:11.130Z,0
2018-04-02T04:57:11.140Z,0
2018-04-02T04:58:11.432Z,0
2018-04-02T04:59:11.442Z,0
2018-04-02T05:00:11.460Z,0
2018-04-02T05:01:11.469Z,0
2018-04-02T05:02:10.922Z,0
2018-04-02T05:03:11.210Z,0
2018-04-02T05:04:11.214Z,0
2018-04-02T05:05:11.804Z,0
2018-04-02T05:06:11.799Z,0
2018-04-02T05:07:11.303Z,0
2018-04-02T05:08:11.537Z,0
2018-04-02T05:09:11.558Z,0
2018-04-02T05:10:11.632Z,0
2018-04-02T05:11:11.858Z,0
2018-04-02T05:12:11.587Z,0
2018-04-02T05:13:11.024Z,0
2018-04-02T05:14:12.313Z,0
2018-04-02T05:15:13.022Z,0
2018-04-02T05:16:11.346Z,0
2018-04-02T05:17:11.349Z,0
2018-04-02T05:18:11.663Z,0
2018-04-02T05:19:11.390Z,0
2018-04-02T05:20:11.728Z,0
2018-04-02T05:21:11.393Z,0
2018-04-02T05:22:11.441Z,0
2018-04-02T05:23:12.002Z,0
2018-04-02T05:24:11.720Z,0
2018-04-02T05:25:11.722Z,0
2018-04-02T05:26:11.735Z,0
2018-04-02T05:27:11.744Z,0
2018-04-02T05:28:11.186Z,0
2018-04-02T05:29:11.761Z,0
2018-04-02T05:30:11.781Z,0
2018-04-02T05:31:11.502Z,5
2018-04-02T05:32:11.517Z,5
2018-04-02T05:33:11.525Z,5
2018-04-02T05:34:11.260Z,5
2018-04-02T05:35:11.544Z,5
2018-04-02T05:36:12.148Z,5
2018-04-02T05:37:11.304Z,5
2018-04-02T05:38:11.867Z,5
2018-04-02T05:39:11.585Z,5
2018-04-02T05:40:11.312Z,5
2018-04-02T05:41:11.925Z,5
2018-04-02T05:42:11.627Z,5
2018-04-02T05:43:11.631Z,5
2018-04-02T05:44:11.926Z,5
2018-04-02T05:45:11.710Z,5
2018-04-02T05:46:11.387Z,5
2018-04-02T05:47:11.688Z,5
2018-04-02T05:48:11.966Z,5
2018-04-02T05:49:11.985Z,5
2018-04-02T05:50:11.989Z,5
2018-04-02T05:51:11.712Z,5
2018-04-02T05:52:11.729Z,5
2018-04-02T05:53:11.451Z,5
2018-04-02T05:54:12.028Z,5
2018-04-02T05:55:11.521Z,5
2018-04-02T05:56:12.068Z,5
2018-04-02T05:57:12.364Z,5
2018-04-02T05:58:12.073Z,5
2018-04-02T05:59:12.366Z,5
2018-04-02T06:00:11.813Z,5
2018-04-02T06:01:11.856Z,5
2018-04-02T06:02:12.128Z,5
2018-04-02T06:03:12.407Z,5
2018-04-02T06:04:11.864Z,5
2018-04-02T06:05:12.273Z,5
2018-04-02T06:06:12.175Z,5
2018-04-02T06:07:11.326Z,5
2018-04-02T06:08:11.624Z,5
2018-04-02T06:09:11.920Z,5
2018-04-02T06:10:12.252Z,5
2018-04-02T06:11:12.219Z,5
2018-04-02T06:12:12.233Z,5
2018-04-02T06:13:11.682Z,5
2018-04-02T06:14:11.984Z,5
2018-04-02T06:15:12.595Z,5
2018-04-02T06:16:12.358Z,5
2018-04-02T06:17:12.288Z,5
2018-04-02T06:18:12.001Z,5
2018-04-02T06:19:11.461Z,5
2018-04-02T06:20:12.028Z,5
2018-04-02T06:21:12.055Z,5
2018-04-02T06:22:12.626Z,5
2018-04-02T06:23:12.622Z,5
2018-04-02T06:24:12.383Z,5
2018-04-02T06:25:12.083Z,5
2018-04-02T06:26:12.390Z,5
2018-04-02T06:27:11.820Z,5
2018-04-02T06:28:12.394Z,5
2018-04-02T06:29:12.125Z,5
2018-04-02T06:30:12.430Z,5
2018-04-02T06:31:12.153Z,5
2018-04-02T06:32:12.559Z,5
2018-04-02T06:33:12.732Z,5
2018-04-02T06:34:12.477Z,5
2018-04-02T06:35:11.911Z,5
2018-04-02T06:36:12.203Z,5
2018-04-02T06:37:12.155Z,5
2018-04-02T06:38:12.510Z,5
2018-04-02T06:39:12.516Z,5
2018-04-02T06:40:12.535Z,5
2018-04-02T06:41:12.541Z,5
2018-04-02T06:42:12.271Z,5
2018-04-02T06:43:12.580Z,5
2018-04-02T06:44:12.859Z,5
2018-04-02T06:45:13.010Z,5
2018-04-02T06:46:12.618Z,5
2018-04-02T06:47:12.043Z,5
2018-04-02T06:48:12.333Z,5
2018-04-02T06:49:12.640Z,5
2018-04-02T06:50:12.705Z,5
2018-04-02T06:51:12.659Z,5
2018-04-02T06:52:12.383Z,5
2018-04-02T06:53:12.684Z,10
2018-04-02T06:54:12.688Z,5
2018-04-02T06:55:12.417Z,5
2018-04-02T06:56:12.707Z,5
2018-04-02T06:57:12.149Z,5
2018-04-02T06:58:13.146Z,5
2018-04-02T06:59:12.749Z,5
2018-04-02T07:00:12.802Z,5
2018-04-02T07:01:13.057Z,5
2018-04-02T07:02:11.926Z,5
2018-04-02T07:03:12.784Z,5
2018-04-02T07:04:12.521Z,5
2018-04-02T07:05:12.863Z,10
2018-04-02T07:06:12.255Z,10
2018-04-02T07:07:12.838Z,10
2018-04-02T07:08:12.572Z,10
2018-04-02T07:09:12.581Z,10
2018-04-02T07:10:12.870Z,10
2018-04-02T07:11:12.877Z,10
2018-04-02T07:12:12.902Z,5
2018-04-02T07:13:12.615Z,5
2018-04-02T07:14:12.906Z,5
2018-04-02T07:15:13.458Z,5
2018-04-02T07:16:12.363Z,5
2018-04-02T07:17:12.664Z,5
2018-04-02T07:18:12.957Z,5
2018-04-02T07:19:12.684Z,5
2018-04-02T07:20:12.970Z,5
2018-04-02T07:21:12.758Z,5
2018-04-02T07:22:13.002Z,5
2018-04-02T07:23:13.465Z,5
2018-04-02T07:24:12.737Z,5
2018-04-02T07:25:12.744Z,5
2018-04-02T07:26:12.757Z,5
2018-04-02T07:27:12.781Z,5
2018-04-02T07:28:12.783Z,5
2018-04-02T07:29:12.508Z,5
2018-04-02T07:30:13.096Z,5
2018-04-02T07:31:12.866Z,5
2018-04-02T07:32:13.112Z,5
2018-04-02T07:33:13.125Z,5
2018-04-02T07:34:12.860Z,5
2018-04-02T07:35:13.143Z,5
2018-04-02T07:36:13.511Z,5
2018-04-02T07:37:12.890Z,5
2018-04-02T07:38:12.891Z,5
2018-04-02T07:39:13.196Z,5
2018-04-02T07:40:12.914Z,5
2018-04-02T07:41:13.497Z,5
2018-04-02T07:42:13.219Z,5
2018-04-02T07:43:12.669Z,5
2018-04-02T07:44:12.959Z,5
2018-04-02T07:45:13.275Z,5
2018-04-02T07:46:13.258Z,5
2018-04-02T07:47:13.286Z,5
2018-04-02T07:48:13.578Z,5
2018-04-02T07:49:12.452Z,5
2018-04-02T07:50:13.041Z,10
2018-04-02T07:51:12.757Z,5
2018-04-02T07:52:13.632Z,5
2018-04-02T07:53:13.639Z,10
2018-04-02T07:54:13.356Z,10
2018-04-02T07:55:12.801Z,15
2018-04-02T07:56:13.385Z,10
2018-04-02T07:57:13.487Z,10
2018-04-02T07:58:13.691Z,10
2018-04-02T07:59:12.849Z,15
2018-04-02T08:00:13.142Z,10
2018-04-02T08:01:13.168Z,15
2018-04-02T08:02:13.457Z,15
2018-04-02T08:03:13.458Z,20
2018-04-02T08:04:12.950Z,20
2018-04-02T08:05:13.195Z,20
2018-04-02T08:06:12.930Z,20
2018-04-02T08:07:13.505Z,20
2018-04-02T08:08:13.229Z,25
2018-04-02T08:09:13.811Z,20
2018-04-02T08:10:13.545Z,20
2018-04-02T08:11:13.313Z,25
2018-04-02T08:12:13.003Z,25
2018-04-02T08:13:13.295Z,25
2018-04-02T08:14:13.308Z,30
2018-04-02T08:15:13.330Z,30
2018-04-02T08:16:13.619Z,30
2018-04-02T08:17:13.348Z,30
2018-04-02T08:18:13.713Z,30
2018-04-02T08:19:13.653Z,25
2018-04-02T08:20:13.946Z,20
2018-04-02T08:21:13.383Z,20
2018-04-02T08:22:13.114Z,20
2018-04-02T08:23:13.137Z,15
2018-04-02T08:24:13.417Z,15
2018-04-02T08:25:13.719Z,15
2018-04-02T08:26:14.119Z,15
2018-04-02T08:27:13.223Z,20
2018-04-02T08:28:13.852Z,15
2018-04-02T08:29:13.193Z,15
2018-04-02T08:30:14.050Z,15
2018-04-02T08:31:13.520Z,15
2018-04-02T08:32:13.793Z,15
2018-04-02T08:33:13.804Z,15
2018-04-02T08:34:14.110Z,20
2018-04-02T08:35:12.982Z,20
2018-04-02T08:36:13.977Z,20
2018-04-02T08:37:13.977Z,20
2018-04-02T08:38:13.018Z,15
2018-04-02T08:39:13.882Z,15
2018-04-02T08:40:14.184Z,15
2018-04-02T08:41:13.638Z,15
2018-04-02T08:42:13.638Z,20
2018-04-02T08:43:13.936Z,30
2018-04-02T08:44:13.374Z,30
2018-04-02T08:45:13.963Z,25
2018-04-02T08:46:13.457Z,30
2018-04-02T08:47:13.983Z,30
2018-04-02T08:48:13.429Z,25
2018-04-02T08:49:13.437Z,25
2018-04-02T08:50:14.306Z,25
2018-04-02T08:51:14.029Z,35
2018-04-02T08:52:14.044Z,35
2018-04-02T08:53:13.766Z,35
2018-04-02T08:54:14.068Z,35
2018-04-02T08:55:14.358Z,25
2018-04-02T08:56:14.084Z,35
2018-04-02T08:57:14.403Z,40
2018-04-02T08:58:13.830Z,40
2018-04-02T08:59:14.120Z,40
2018-04-02T09:00:14.133Z,40
2018-04-02T09:01:13.862Z,40
2018-04-02T09:02:14.456Z,40
2018-04-02T09:03:13.324Z,40
2018-04-02T09:04:13.907Z,30
2018-04-02T09:05:14.199Z,30
2018-04-02T09:06:14.445Z,30
2018-04-02T09:07:14.316Z,30
2018-04-02T09:08:13.669Z,30
2018-04-02T09:09:14.254Z,20
2018-04-02T09:10:13.978Z,20
2018-04-02T09:11:13.706Z,20
2018-04-02T09:12:14.322Z,25
2018-04-02T09:13:14.669Z,25
2018-04-02T09:14:14.596Z,20
2018-04-02T09:15:14.887Z,20
2018-04-02T09:16:14.057Z,20
2018-04-02T09:17:14.638Z,20
2018-04-02T09:18:14.646Z,20
2018-04-02T09:19:14.372Z,20
2018-04-02T09:20:14.105Z,20
2018-04-02T09:21:14.116Z,20
2018-04-02T09:22:14.131Z,20
2018-04-02T09:23:14.705Z,15
2018-04-02T09:24:14.435Z,15
2018-04-02T09:25:14.783Z,15
2018-04-02T09:26:14.474Z,15
2018-04-02T09:27:14.475Z,15
2018-04-02T09:28:14.211Z,15
2018-04-02T09:29:14.499Z,20
2018-04-02T09:30:14.533Z,20
2018-04-02T09:31:14.545Z,20
2018-04-02T09:32:14.569Z,20
2018-04-02T09:33:14.552Z,20
2018-04-02T09:34:14.282Z,20
2018-04-02T09:35:14.853Z,20
2018-04-02T09:36:14.646Z,20
2018-04-02T09:37:14.603Z,20
2018-04-02T09:38:14.355Z,20
2018-04-02T09:39:14.636Z,20
2018-04-02T09:40:14.359Z,20
2018-04-02T09:41:14.665Z,20
2018-04-02T09:42:14.384Z,20
2018-04-02T09:43:14.398Z,20
2018-04-02T09:44:14.987Z,20
2018-04-02T09:45:14.448Z,20
2018-04-02T09:46:14.719Z,20
2018-04-02T09:47:15.029Z,20
2018-04-02T09:48:14.464Z,20
2018-04-02T09:49:14.475Z,20
2018-04-02T09:50:15.059Z,20
2018-04-02T09:51:15.072Z,20
2018-04-02T09:52:14.515Z,15
2018-04-02T09:53:14.815Z,15
2018-04-02T09:54:15.388Z,20
2018-04-02T09:55:14.567Z,20
2018-04-02T09:56:14.578Z,20
2018-04-02T09:57:14.660Z,20
2018-04-02T09:58:14.901Z,20
2018-04-02T09:59:14.669Z,25
2018-04-02T10:00:14.902Z,25
2018-04-02T10:01:14.648Z,30
2018-04-02T10:02:14.654Z,35
2018-04-02T10:03:15.237Z,40
2018-04-02T10:04:14.970Z,35
2018-04-02T10:05:15.802Z,35
2018-04-02T10:06:14.422Z,30
2018-04-02T10:07:15.034Z,30
2018-04-02T10:08:15.297Z,35
2018-04-02T10:09:14.749Z,25
2018-04-02T10:10:15.543Z,25
2018-04-02T10:11:14.771Z,25
2018-04-02T10:12:15.078Z,35
2018-04-02T10:13:14.518Z,30
2018-04-02T10:14:14.823Z,40
2018-04-02T10:15:14.551Z,50
2018-04-02T10:16:15.125Z,50
2018-04-02T10:17:15.179Z,50
2018-04-02T10:18:15.446Z,45
2018-04-02T10:19:14.895Z,40
2018-04-02T10:20:14.620Z,30
2018-04-02T10:21:14.630Z,25
2018-04-02T10:22:15.218Z,25
2018-04-02T10:23:14.948Z,40
2018-04-02T10:24:15.151Z,55
2018-04-02T10:25:15.324Z,55
2018-04-02T10:26:15.342Z,45
2018-04-02T10:27:15.044Z,40
2018-04-02T10:28:15.645Z,40
2018-04-02T10:29:15.052Z,30
2018-04-02T10:30:15.039Z,30
2018-04-02T10:31:15.213Z,35
2018-04-02T10:32:15.166Z,45
2018-04-02T10:33:15.376Z,45
2018-04-02T10:34:15.391Z,40
2018-04-02T10:35:14.839Z,35
2018-04-02T10:36:15.697Z,25
2018-04-02T10:37:15.282Z,25
2018-04-02T10:38:14.591Z,35
2018-04-02T10:39:15.464Z,40
2018-04-02T10:40:14.622Z,30
2018-04-02T10:41:14.634Z,25
2018-04-02T10:42:14.933Z,25
2018-04-02T10:43:15.885Z,20
2018-04-02T10:44:15.527Z,30
2018-04-02T10:45:15.256Z,35
2018-04-02T10:46:15.276Z,35
2018-04-02T10:47:15.857Z,40
2018-04-02T10:48:15.022Z,40
2018-04-02T10:49:15.326Z,35
2018-04-02T10:50:15.630Z,30
2018-04-02T10:51:15.354Z,30
2018-04-02T10:52:15.376Z,35
2018-04-02T10:53:15.707Z,30
2018-04-02T10:54:15.963Z,20
2018-04-02T10:55:15.691Z,20
2018-04-02T10:56:15.434Z,30
2018-04-02T10:57:15.720Z,30
2018-04-02T10:58:15.199Z,30
2018-04-02T10:59:15.468Z,25
2018-04-02T11:00:15.487Z,15
2018-04-02T11:01:14.933Z,15
2018-04-02T11:02:15.511Z,15
2018-04-02T11:03:15.534Z,10
2018-04-02T11:04:15.825Z,10
2018-04-02T11:05:15.842Z,15
2018-04-02T11:06:16.019Z,15
2018-04-02T11:07:15.872Z,15
2018-04-02T11:08:15.322Z,15
2018-04-02T11:09:15.623Z,15
2018-04-02T11:10:15.925Z,20
2018-04-02T11:11:15.651Z,25
2018-04-02T11:12:15.387Z,30
2018-04-02T11:13:15.801Z,25
2018-04-02T11:14:15.983Z,20
2018-04-02T11:15:15.148Z,20
2018-04-02T11:16:16.013Z,20
2018-04-02T11:17:15.748Z,15
2018-04-02T11:18:16.339Z,20
2018-04-02T11:19:16.100Z,20
2018-04-02T11:20:15.788Z,30
2018-04-02T11:21:16.108Z,35
2018-04-02T11:22:16.076Z,35
2018-04-02T11:23:15.888Z,30
2018-04-02T11:24:16.435Z,30
2018-04-02T11:25:16.424Z,35
2018-04-02T11:26:16.366Z,35
2018-04-02T11:27:15.899Z,25
2018-04-02T11:28:16.253Z,20
2018-04-02T11:29:15.934Z,15
2018-04-02T11:30:15.659Z,15
2018-04-02T11:31:15.962Z,20
2018-04-02T11:32:15.990Z,20
2018-04-02T11:33:16.565Z,25
2018-04-02T11:34:16.298Z,25
2018-04-02T11:35:16.343Z,25
2018-04-02T11:36:16.037Z,25
2018-04-02T11:37:15.768Z,30
2018-04-02T11:38:16.064Z,30
2018-04-02T11:39:16.658Z,25
2018-04-02T11:40:16.444Z,20
2018-04-02T11:41:16.145Z,15
2018-04-02T11:42:16.696Z,15
2018-04-02T11:43:16.441Z,25
2018-04-02T11:44:16.441Z,25
2018-04-02T11:45:16.744Z,25
2018-04-02T11:46:16.475Z,25
2018-04-02T11:47:16.782Z,30
2018-04-02T11:48:16.749Z,45
2018-04-02T11:49:16.530Z,45
2018-04-02T11:50:16.533Z,45
2018-04-02T11:51:15.986Z,35
2018-04-02T11:52:16.287Z,30
2018-04-02T11:53:16.302Z,25
2018-04-02T11:54:16.316Z,25
2018-04-02T11:55:16.616Z,30
2018-04-02T11:56:16.917Z,30
2018-04-02T11:57:16.795Z,30
2018-04-02T11:58:16.723Z,30
2018-04-02T11:59:16.402Z,35
2018-04-02T12:00:16.412Z,40
2018-04-02T12:01:16.442Z,40
2018-04-02T12:02:16.446Z,40
2018-04-02T12:03:17.065Z,35
2018-04-02T12:04:16.774Z,30
2018-04-02T12:05:16.490Z,30
2018-04-02T12:06:17.084Z,30
2018-04-02T12:07:16.817Z,35
2018-04-02T12:08:16.824Z,40
2018-04-02T12:09:16.571Z,40
2018-04-02T12:10:16.288Z,35
2018-04-02T12:11:16.602Z,35
2018-04-02T12:12:17.234Z,35
2018-04-02T12:13:16.906Z,30
2018-04-02T12:14:16.352Z,35
2018-04-02T12:15:16.674Z,35
2018-04-02T12:16:16.669Z,45
2018-04-02T12:17:16.690Z,50
2018-04-02T12:18:16.997Z,50
2018-04-02T12:19:17.341Z,50
2018-04-02T12:20:17.290Z,45
2018-04-02T12:21:17.612Z,40
2018-04-02T12:22:16.767Z,30
2018-04-02T12:23:17.143Z,30
2018-04-02T12:24:17.372Z,35
2018-04-02T12:25:16.847Z,40
2018-04-02T12:26:17.196Z,40
2018-04-02T12:27:17.426Z,45
2018-04-02T12:28:16.864Z,50
2018-04-02T12:29:16.884Z,45
2018-04-02T12:30:17.463Z,35
2018-04-02T12:31:16.630Z,35
2018-04-02T12:32:16.983Z,35
2018-04-02T12:33:16.661Z,40
2018-04-02T12:34:17.243Z,45
2018-04-02T12:35:17.262Z,45
2018-04-02T12:36:16.992Z,40
2018-04-02T12:37:17.021Z,40
2018-04-02T12:38:17.086Z,55
2018-04-02T12:39:17.327Z,60
2018-04-02T12:40:17.064Z,50
2018-04-02T12:41:16.805Z,45
2018-04-02T12:42:17.092Z,45
2018-04-02T12:43:17.496Z,50
2018-04-02T12:44:17.182Z,45
2018-04-02T12:45:16.585Z,40
2018-04-02T12:46:17.454Z,45
2018-04-02T12:47:17.466Z,45
2018-04-02T12:48:17.778Z,40
2018-04-02T12:49:17.220Z,35
2018-04-02T12:50:17.514Z,40
2018-04-02T12:51:16.965Z,45
2018-04-02T12:52:17.544Z,60
2018-04-02T12:53:17.844Z,55
2018-04-02T12:54:17.579Z,45
2018-04-02T12:55:17.886Z,45
2018-04-02T12:56:17.369Z,50
2018-04-02T12:57:17.928Z,50
2018-04-02T12:58:17.981Z,45
2018-04-02T12:59:17.396Z,45
2018-04-02T13:00:17.397Z,35
2018-04-02T13:01:17.193Z,35
2018-04-02T13:02:17.948Z,35
2018-04-02T13:03:17.753Z,35
2018-04-02T13:04:17.793Z,35
2018-04-02T13:05:17.763Z,40
2018-04-02T13:06:17.794Z,40
2018-04-02T13:07:17.519Z,40
2018-04-02T13:08:17.303Z,45
2018-04-02T13:09:17.274Z,45
2018-04-02T13:10:18.141Z,40
2018-04-02T13:11:17.588Z,45
2018-04-02T13:12:17.905Z,35
2018-04-02T13:13:17.680Z,35
2018-04-02T13:14:17.645Z,35
2018-04-02T13:15:17.654Z,35
2018-04-02T13:16:17.953Z,35
2018-04-02T13:17:18.261Z,35
2018-04-02T13:18:17.763Z,35
2018-04-02T13:19:17.819Z,35
2018-04-02T13:20:17.756Z,35
2018-04-02T13:21:18.336Z,35
2018-04-02T13:22:17.781Z,40
2018-04-02T13:23:17.861Z,45
2018-04-02T13:24:18.104Z,40
2018-04-02T13:25:18.408Z,30
2018-04-02T13:26:17.857Z,25
2018-04-02T13:27:18.168Z,25
2018-04-02T13:28:18.182Z,25
2018-04-02T13:29:17.341Z,25
2018-04-02T13:30:18.503Z,25
2018-04-02T13:31:17.380Z,25
2018-04-02T13:32:18.240Z,30
2018-04-02T13:33:17.979Z,30
2018-04-02T13:34:18.569Z,35
2018-04-02T13:35:18.595Z,35
2018-04-02T13:36:18.319Z,35
2018-04-02T13:37:18.337Z,30
2018-04-02T13:38:18.356Z,30
2018-04-02T13:39:18.380Z,30
2018-04-02T13:40:18.393Z,30
2018-04-02T13:41:18.418Z,30
2018-04-02T13:42:18.713Z,25
2018-04-02T13:43:18.740Z,25
2018-04-02T13:44:18.181Z,35
2018-04-02T13:45:18.485Z,40
2018-04-02T13:46:18.507Z,40
2018-04-02T13:47:18.244Z,40
2018-04-02T13:48:18.881Z,45
2018-04-02T13:49:18.307Z,45
2018-04-02T13:50:18.589Z,40
2018-04-02T13:51:18.585Z,45
2018-04-02T13:52:18.895Z,45
2018-04-02T13:53:18.919Z,45
2018-04-02T13:54:18.082Z,40
2018-04-02T13:55:18.384Z,35
2018-04-02T13:56:18.398Z,35
2018-04-02T13:57:18.711Z,40
2018-04-02T13:58:18.443Z,40
2018-04-02T13:59:18.174Z,45
2018-04-02T14:00:18.770Z,50
2018-04-02T14:01:18.782Z,45
2018-04-02T14:02:18.514Z,45
2018-04-02T14:03:18.537Z,45
2018-04-02T14:04:18.844Z,45
2018-04-02T14:05:18.287Z,45
2018-04-02T14:06:18.591Z,40
2018-04-02T14:07:18.893Z,40
2018-04-02T14:08:18.642Z,40
2018-04-02T14:09:18.653Z,45
2018-04-02T14:10:18.947Z,35
2018-04-02T14:11:19.255Z,40
2018-04-02T14:12:19.292Z,40
2018-04-02T14:13:18.719Z,45
2018-04-02T14:14:18.739Z,45
2018-04-02T14:15:18.770Z,40
2018-04-02T14:16:18.785Z,40
2018-04-02T14:17:18.803Z,45
2018-04-02T14:18:19.386Z,45
2018-04-02T14:19:19.127Z,40
2018-04-02T14:20:18.860Z,35
2018-04-02T14:21:18.886Z,35
2018-04-02T14:22:18.894Z,35
2018-04-02T14:23:19.196Z,30
2018-04-02T14:24:18.948Z,35
2018-04-02T14:25:18.671Z,35
2018-04-02T14:26:18.980Z,35
2018-04-02T14:27:18.997Z,35
2018-04-02T14:28:19.352Z,45
2018-04-02T14:29:19.027Z,50
2018-04-02T14:30:19.378Z,45
2018-04-02T14:31:19.357Z,45
2018-04-02T14:32:19.388Z,45